createdAt,value
2022-12-07T00:00:49.221Z,2.11
2022-12-07T00:03:37.384Z,2.11
2022-12-07T00:06:22.054Z,2.12
2022-12-07T00:09:20.036Z,2.11
2022-12-07T00:12:08.040Z,2.11
2022-12-07T00:14:43.151Z,2.16
2022-12-07T00:17:31.043Z,2.20
2022-12-07T00:20:13.019Z,2.22
2022-12-07T00:23:01.247Z,2.24
2022-12-07T00:25:57.029Z,2.26
2022-12-07T00:28:46.245Z,2.34
2022-12-07T00:31:31.050Z,2.40
2022-12-07T00:34:33.036Z,2.41
2022-12-07T00:37:21.039Z,2.41
2022-12-07T00:39:56.216Z,2.44
2022-12-07T00:42:44.039Z,2.47
2022-12-07T00:45:32.189Z,2.50
2022-12-07T00:48:06.464Z,2.51
2022-12-07T00:50:54.027Z,2.52
2022-12-07T00:53:40.877Z,2.51
2022-12-07T00:56:33.053Z,2.54
2022-12-07T00:59:07.503Z,2.57
2022-12-07T01:01:55.119Z,2.60
2022-12-07T01:04:29.552Z,2.59
2022-12-07T01:07:17.033Z,2.58
2022-12-07T01:09:51.454Z,2.59
2022-12-07T01:12:39.012Z,2.62
2022-12-07T01:15:13.537Z,2.64
2022-12-07T01:18:02.023Z,2.65
2022-12-07T01:20:44.028Z,2.63
2022-12-07T01:23:32.020Z,2.60
2022-12-07T01:26:23.001Z,2.61
2022-12-07T01:29:00.217Z,2.62
2022-12-07T01:31:48.002Z,2.62
2022-12-07T01:34:30.223Z,2.61
2022-12-07T01:37:25.013Z,2.58
2022-12-07T01:40:15.047Z,2.57
2022-12-07T01:42:57.018Z,2.57
2022-12-07T01:45:55.067Z,2.55
2022-12-07T01:48:47.009Z,2.53
2022-12-07T01:51:22.135Z,2.53
2022-12-07T01:54:10.021Z,2.57
2022-12-07T01:56:45.206Z,2.61
2022-12-07T01:59:34.020Z,2.61
2022-12-07T02:02:17.052Z,2.60
2022-12-07T02:05:14.002Z,2.60
2022-12-07T02:08:04.286Z,2.60
2022-12-07T02:10:47.004Z,2.62
2022-12-07T02:13:46.018Z,2.63
2022-12-07T02:16:40.010Z,2.63
2022-12-07T02:19:47.150Z,2.62
2022-12-07T02:22:53.994Z,2.59
2022-12-07T02:25:40.160Z,2.59
2022-12-07T02:28:43.993Z,2.61
2022-12-07T02:31:29.183Z,2.63
2022-12-07T02:34:18.018Z,2.64
2022-12-07T02:37:04.190Z,2.64
2022-12-07T02:39:59.152Z,2.67
2022-12-07T02:42:45.175Z,2.70
2022-12-07T02:45:30.014Z,2.73
2022-12-07T02:48:12.154Z,2.73
2022-12-07T02:50:57.991Z,2.68
2022-12-07T02:53:49.179Z,2.64
2022-12-07T02:56:35.987Z,2.65
2022-12-07T02:59:39.213Z,2.69
2022-12-07T03:02:23.258Z,2.66
2022-12-07T03:05:21.221Z,2.63
2022-12-07T03:08:31.932Z,2.59
2022-12-07T03:11:35.020Z,2.57
2022-12-07T03:14:20.768Z,2.59
2022-12-07T03:17:13.982Z,2.57
2022-12-07T03:20:06.181Z,2.61
2022-12-07T03:22:44.122Z,2.64
2022-12-07T03:25:32.007Z,2.69
2022-12-07T03:28:11.127Z,2.73
2022-12-07T03:31:20.204Z,2.73
2022-12-07T03:34:03.337Z,2.74
2022-12-07T03:37:13.027Z,2.74
2022-12-07T03:39:52.131Z,2.73
2022-12-07T03:42:40.987Z,2.74
2022-12-07T03:45:16.173Z,2.74
2022-12-07T03:48:16.981Z,2.72
2022-12-07T03:51:08.341Z,2.67
2022-12-07T03:54:04.977Z,2.61
2022-12-07T03:56:40.155Z,2.59
2022-12-07T03:59:28.983Z,2.56
2022-12-07T04:02:07.208Z,2.51
2022-12-07T04:04:54.980Z,2.46
2022-12-07T04:07:37.018Z,2.45
2022-12-07T04:10:33.000Z,2.44
2022-12-07T04:13:21.177Z,2.46
2022-12-07T04:16:03.176Z,2.48
2022-12-07T04:18:50.991Z,2.48
2022-12-07T04:21:26.194Z,2.49
2022-12-07T04:24:14.974Z,2.47
2022-12-07T04:26:56.151Z,2.42
2022-12-07T04:29:38.191Z,2.43
2022-12-07T04:32:20.341Z,2.42
2022-12-07T04:35:02.171Z,2.38
2022-12-07T04:37:44.314Z,2.36
2022-12-07T04:40:26.139Z,2.34
2022-12-07T04:43:07.150Z,2.34
2022-12-07T04:45:47.962Z,2.35
2022-12-07T04:48:29.356Z,2.34
2022-12-07T04:51:11.968Z,2.32
2022-12-07T04:53:59.969Z,2.24
2022-12-07T04:56:42.987Z,2.21
2022-12-07T04:59:31.977Z,2.26
2022-12-07T05:02:06.577Z,2.27
2022-12-07T05:04:55.178Z,2.27
2022-12-07T05:07:31.156Z,2.26
2022-12-07T05:10:19.978Z,2.25
2022-12-07T05:12:54.586Z,2.31
2022-12-07T05:15:43.189Z,2.35
2022-12-07T05:18:18.576Z,2.34
2022-12-07T05:21:06.139Z,2.33
2022-12-07T05:23:54.975Z,2.31
2022-12-07T05:26:43.168Z,2.29
2022-12-07T05:29:23.105Z,2.32
2022-12-07T05:32:11.029Z,2.38
2022-12-07T05:34:46.122Z,2.41
2022-12-07T05:37:33.939Z,2.41
2022-12-07T05:40:09.103Z,2.41
2022-12-07T05:43:04.040Z,2.42
2022-12-07T05:45:45.997Z,2.41
2022-12-07T05:48:34.176Z,2.41
2022-12-07T05:51:09.303Z,2.42
2022-12-07T05:53:57.137Z,2.40
2022-12-07T05:56:39.131Z,2.36
2022-12-07T05:59:34.942Z,2.36
2022-12-07T06:02:24.033Z,2.35
2022-12-07T06:04:59.096Z,2.34
2022-12-07T06:07:47.001Z,2.34
2022-12-07T06:10:28.962Z,2.33
2022-12-07T06:13:11.095Z,2.37
2022-12-07T06:15:59.966Z,2.36
2022-12-07T06:18:34.407Z,2.32
2022-12-07T06:21:21.953Z,2.32
2022-12-07T06:24:09.958Z,2.32
2022-12-07T06:26:57.955Z,2.31
2022-12-07T06:29:33.083Z,2.36
2022-12-07T06:32:20.944Z,2.39
2022-12-07T06:34:55.175Z,2.43
2022-12-07T06:37:42.957Z,2.46
2022-12-07T06:40:18.102Z,2.47
2022-12-07T06:43:05.953Z,2.50
2022-12-07T06:45:41.179Z,2.53
2022-12-07T06:48:29.156Z,2.54
2022-12-07T06:51:10.945Z,2.53
2022-12-07T06:53:58.965Z,2.50
2022-12-07T06:56:34.083Z,2.46
2022-12-07T06:59:21.956Z,2.47
2022-12-07T07:02:04.032Z,2.48
2022-12-07T07:04:59.035Z,2.49
2022-12-07T07:08:20.345Z,2.49
2022-12-07T07:10:49.932Z,2.49
2022-12-07T07:13:44.947Z,2.48
2022-12-07T07:16:32.989Z,2.48
2022-12-07T07:19:08.105Z,2.46
2022-12-07T07:21:55.943Z,2.45
2022-12-07T07:24:31.355Z,2.44
2022-12-07T07:27:19.045Z,2.41
2022-12-07T07:29:54.178Z,2.40
2022-12-07T07:32:41.950Z,2.44
2022-12-07T07:35:23.932Z,2.46
2022-12-07T07:38:18.945Z,2.44
2022-12-07T07:41:08.136Z,2.44
2022-12-07T07:43:43.286Z,2.44
2022-12-07T07:46:31.034Z,2.43
2022-12-07T07:49:06.073Z,2.38
2022-12-07T07:51:53.943Z,2.30
2022-12-07T07:54:35.066Z,2.24
2022-12-07T07:57:15.914Z,2.24
2022-12-07T08:00:04.170Z,2.22
2022-12-07T08:02:54.480Z,2.21
2022-12-07T08:14:46.940Z,2.12
2022-12-07T08:17:35.040Z,2.09
2022-12-07T08:20:10.083Z,2.08
2022-12-07T08:22:57.921Z,2.07
2022-12-07T08:25:33.068Z,2.10
2022-12-07T08:28:20.920Z,2.14
2022-12-07T08:30:56.136Z,2.16
2022-12-07T08:33:44.924Z,2.18
2022-12-07T08:36:20.147Z,2.20
2022-12-07T08:39:30.775Z,2.23
2022-12-07T08:42:10.018Z,2.30
2022-12-07T08:45:04.918Z,2.35
2022-12-07T08:48:05.917Z,2.38
2022-12-07T08:50:44.556Z,2.40
2022-12-07T08:53:37.937Z,2.46
2022-12-07T08:56:13.081Z,2.52
2022-12-07T08:59:00.919Z,2.58
2022-12-07T09:01:43.010Z,2.58
2022-12-07T09:04:38.012Z,2.62
2022-12-07T09:07:25.956Z,2.73
2022-12-07T09:10:01.584Z,2.80
2022-12-07T09:12:49.928Z,2.88
2022-12-07T09:15:32.021Z,2.96
2022-12-07T09:18:27.044Z,3.08
2022-12-07T09:21:14.928Z,3.25
2022-12-07T09:23:50.066Z,3.43
2022-12-07T09:26:37.991Z,3.52
2022-12-07T09:29:19.918Z,3.59
2022-12-07T09:32:11.803Z,3.62
2022-12-07T09:34:53.988Z,3.63
2022-12-07T09:37:48.907Z,3.67
2022-12-07T09:40:36.896Z,3.76
2022-12-07T09:43:12.165Z,3.84
2022-12-07T09:46:01.986Z,3.88
2022-12-07T09:48:46.114Z,3.89
2022-12-07T09:51:33.944Z,3.95
2022-12-07T09:54:16.910Z,4.03
2022-12-07T09:57:04.984Z,4.08
2022-12-07T09:59:46.975Z,4.05
2022-12-07T10:02:44.180Z,4.07
2022-12-07T10:05:37.032Z,4.07
2022-12-07T10:08:19.994Z,4.12
2022-12-07T10:11:04.703Z,4.14
2022-12-07T10:13:48.889Z,4.13
2022-12-07T10:16:40.009Z,4.06
2022-12-07T10:19:31.233Z,4.01
2022-12-07T10:22:32.088Z,3.95
2022-12-07T10:25:26.972Z,3.92
2022-12-07T10:28:23.101Z,3.89
2022-12-07T10:31:22.934Z,3.90
2022-12-07T10:34:07.043Z,3.96
2022-12-07T10:36:47.933Z,3.99
2022-12-07T10:39:31.918Z,3.99
2022-12-07T10:42:13.976Z,4.01
2022-12-07T10:44:57.175Z,4.06
2022-12-07T10:48:14.016Z,4.12
2022-12-07T10:51:07.073Z,4.06
2022-12-07T10:54:06.169Z,3.98
2022-12-07T10:56:59.913Z,3.94
2022-12-07T10:59:42.939Z,3.91
2022-12-07T11:02:49.948Z,3.92
2022-12-07T11:05:40.962Z,3.93
2022-12-07T11:08:41.695Z,3.92
2022-12-07T11:11:29.888Z,3.87
2022-12-07T11:14:13.872Z,3.82
2022-12-07T11:17:12.887Z,3.82
2022-12-07T11:19:54.258Z,3.87
2022-12-07T11:23:09.891Z,3.93
2022-12-07T11:25:50.032Z,3.94
2022-12-07T11:28:55.901Z,4.00
2022-12-07T11:31:30.719Z,4.03
2022-12-07T11:34:26.887Z,3.98
2022-12-07T11:37:02.154Z,3.92
2022-12-07T11:40:07.898Z,3.91
2022-12-07T11:42:55.875Z,3.96
2022-12-07T11:45:55.896Z,4.01
2022-12-07T11:48:54.967Z,4.00
2022-12-07T11:51:38.085Z,3.92
2022-12-07T11:54:23.973Z,3.86
2022-12-07T11:57:16.864Z,3.87
2022-12-07T12:00:09.896Z,3.89
2022-12-07T12:03:03.051Z,3.90
2022-12-07T12:05:43.909Z,3.88
2022-12-07T12:15:40.884Z,3.88
2022-12-07T12:18:24.489Z,3.91
2022-12-07T12:21:29.879Z,3.97
2022-12-07T12:24:15.059Z,4.05
2022-12-07T12:27:22.960Z,4.08
2022-12-07T12:30:14.899Z,4.07
2022-12-07T12:32:53.034Z,4.05
2022-12-07T12:35:43.881Z,4.04
2022-12-07T12:38:45.873Z,4.02
2022-12-07T12:41:42.918Z,4.02
2022-12-07T12:44:30.009Z,4.02
2022-12-07T12:47:57.916Z,3.97
2022-12-07T12:50:45.963Z,3.96
2022-12-07T12:53:32.043Z,4.00
2022-12-07T12:56:19.976Z,4.11
2022-12-07T12:58:55.030Z,4.25
2022-12-07T13:01:50.931Z,4.47
2022-12-07T13:05:20.966Z,4.69
2022-12-07T13:08:19.889Z,4.78
2022-12-07T13:11:25.913Z,4.76
2022-12-07T13:14:01.013Z,4.74
2022-12-07T13:16:49.960Z,4.70
2022-12-07T13:19:50.030Z,4.64
2022-12-07T13:22:37.967Z,4.52
2022-12-07T13:25:25.017Z,4.41
2022-12-07T13:28:34.861Z,4.31
2022-12-07T13:31:21.410Z,4.25
2022-12-07T13:34:13.725Z,4.25
2022-12-07T13:36:58.869Z,4.26
2022-12-07T13:40:06.879Z,4.27
2022-12-07T13:43:01.882Z,4.33
2022-12-07T13:45:55.951Z,4.38
2022-12-07T13:48:53.190Z,4.34
2022-12-07T13:51:43.881Z,4.26
2022-12-07T13:54:21.048Z,4.24
2022-12-07T13:57:08.878Z,4.25
2022-12-07T13:59:44.048Z,4.25
2022-12-07T14:02:45.408Z,4.20
2022-12-07T14:05:31.992Z,4.10
2022-12-07T14:08:20.929Z,3.98
2022-12-07T14:10:56.044Z,4.04
2022-12-07T14:13:46.985Z,4.01
2022-12-07T14:16:29.159Z,3.95
2022-12-07T14:19:53.867Z,3.85
2022-12-07T14:22:34.922Z,3.76
2022-12-07T14:25:35.865Z,3.68
2022-12-07T14:29:00.860Z,3.61
2022-12-07T14:31:49.009Z,3.55
2022-12-07T14:34:24.044Z,3.48
2022-12-07T14:37:14.887Z,3.41
2022-12-07T14:39:49.974Z,3.34
2022-12-07T14:42:38.905Z,3.26
2022-12-07T14:45:20.850Z,3.22
2022-12-07T14:54:13.878Z,3.19
2022-12-07T14:56:52.615Z,3.16
2022-12-07T14:59:45.078Z,3.16
2022-12-07T15:02:23.088Z,3.18
2022-12-07T15:05:15.646Z,3.18
2022-12-07T15:07:52.511Z,3.18
2022-12-07T15:10:42.853Z,3.19
2022-12-07T15:13:37.457Z,3.20
2022-12-07T15:16:30.787Z,3.21
2022-12-07T15:19:28.410Z,3.23
2022-12-07T15:22:18.861Z,3.26
2022-12-07T15:24:54.009Z,3.23
2022-12-07T15:27:44.041Z,3.21
2022-12-07T15:30:19.009Z,3.20
2022-12-07T15:33:06.881Z,3.17
2022-12-07T15:35:56.047Z,3.18
2022-12-07T15:39:05.212Z,3.21
2022-12-07T15:41:41.043Z,3.23
2022-12-07T15:44:35.330Z,3.26
2022-12-07T15:47:23.044Z,3.27
2022-12-07T15:49:57.368Z,3.28
2022-12-07T15:52:45.918Z,3.26
2022-12-07T15:55:20.342Z,3.27
2022-12-07T15:58:07.866Z,3.29
2022-12-07T16:00:42.597Z,3.31
2022-12-07T16:03:31.016Z,3.31
2022-12-07T16:06:06.618Z,3.30
2022-12-07T16:09:00.835Z,3.28
2022-12-07T16:11:35.296Z,3.27
2022-12-07T16:14:22.841Z,3.31
2022-12-07T16:16:57.342Z,3.33
2022-12-07T16:19:45.865Z,3.37
2022-12-07T16:22:20.262Z,3.37
2022-12-07T16:25:07.826Z,3.34
2022-12-07T16:28:02.839Z,3.32
2022-12-07T16:30:50.922Z,3.31
2022-12-07T16:33:25.992Z,3.33
2022-12-07T16:36:18.603Z,3.34
2022-12-07T16:39:00.004Z,3.34
2022-12-07T16:41:51.099Z,3.29
2022-12-07T16:44:26.257Z,3.25
2022-12-07T16:47:14.001Z,3.21
2022-12-07T16:49:55.841Z,3.21
2022-12-07T16:52:50.848Z,3.23
2022-12-07T16:55:53.829Z,3.23
2022-12-07T16:58:42.050Z,3.22
2022-12-07T17:01:20.362Z,3.21
2022-12-07T17:04:07.887Z,3.19
2022-12-07T17:06:43.128Z,3.20
2022-12-07T17:09:31.134Z,3.21
2022-12-07T17:12:14.855Z,3.22
2022-12-07T17:15:23.694Z,3.21
2022-12-07T17:18:05.996Z,3.18
2022-12-07T17:20:53.833Z,3.15
2022-12-07T17:23:37.041Z,3.12
2022-12-07T17:26:38.860Z,3.13
2022-12-07T17:29:34.022Z,3.13
2022-12-07T17:32:25.342Z,3.12
2022-12-07T17:35:14.836Z,3.10
2022-12-07T17:37:51.268Z,3.07
2022-12-07T17:40:38.868Z,3.02
2022-12-07T17:43:21.311Z,2.98
2022-12-07T17:46:10.985Z,2.99
2022-12-07T17:48:48.920Z,2.98
2022-12-07T17:51:59.124Z,2.96
2022-12-07T17:54:34.387Z,2.93
2022-12-07T17:57:24.796Z,2.87
2022-12-07T18:00:04.334Z,2.82
2022-12-07T18:02:52.997Z,2.81
2022-12-07T18:05:35.023Z,2.76
2022-12-07T18:08:16.022Z,2.70
2022-12-07T18:10:56.826Z,2.66
2022-12-07T18:13:47.893Z,2.63
2022-12-07T18:16:35.037Z,2.60
2022-12-07T18:19:23.837Z,2.59
2022-12-07T18:22:05.845Z,2.58
2022-12-07T18:24:51.979Z,2.54
2022-12-07T18:27:40.014Z,2.50
2022-12-07T18:30:15.978Z,2.46
2022-12-07T18:33:04.996Z,2.44
2022-12-07T18:35:42.787Z,2.47
2022-12-07T18:38:33.969Z,2.52
2022-12-07T18:41:11.020Z,2.57
2022-12-07T18:43:59.034Z,2.59
2022-12-07T18:46:40.798Z,2.59
2022-12-07T18:49:28.827Z,2.57
2022-12-07T18:52:03.960Z,2.55
2022-12-07T18:54:51.936Z,2.55
2022-12-07T18:57:27.184Z,2.60
2022-12-07T19:00:16.796Z,2.65
2022-12-07T19:02:59.271Z,2.69
2022-12-07T19:05:41.252Z,2.71
2022-12-07T19:08:23.999Z,2.70
2022-12-07T19:11:26.900Z,2.70
2022-12-07T19:14:09.148Z,2.70
2022-12-07T19:16:52.486Z,2.76
2022-12-07T19:19:51.822Z,2.78
2022-12-07T19:22:32.847Z,2.78
2022-12-07T19:25:21.919Z,2.78
2022-12-07T19:28:17.839Z,2.78
2022-12-07T19:31:05.873Z,2.77
2022-12-07T19:33:48.027Z,2.79
2022-12-07T19:36:31.822Z,2.82
2022-12-07T19:39:20.837Z,2.85
2022-12-07T19:42:02.036Z,2.84
2022-12-07T19:44:43.052Z,2.83
2022-12-07T19:47:24.814Z,2.81
2022-12-07T19:50:16.977Z,2.81
2022-12-07T19:52:56.468Z,2.82
2022-12-07T19:55:45.792Z,2.86
2022-12-07T19:58:26.785Z,2.88
2022-12-07T20:01:20.884Z,2.88
2022-12-07T20:03:57.581Z,2.88
2022-12-07T20:06:46.794Z,2.87
2022-12-07T20:09:38.920Z,2.84
2022-12-07T20:12:46.780Z,2.86
2022-12-07T20:15:21.310Z,2.90
2022-12-07T20:18:10.024Z,2.92
2022-12-07T20:21:03.857Z,2.93
2022-12-07T20:23:44.994Z,2.95
2022-12-07T20:26:25.799Z,2.95
2022-12-07T20:29:10.988Z,2.96
2022-12-07T20:31:55.812Z,2.96
2022-12-07T20:34:36.973Z,2.98
2022-12-07T20:37:17.914Z,3.05
2022-12-07T20:40:00.122Z,3.11
2022-12-07T20:42:44.827Z,3.15
2022-12-07T20:45:26.964Z,3.17
2022-12-07T20:48:07.796Z,3.14
2022-12-07T20:50:56.779Z,3.11
2022-12-07T20:53:33.340Z,3.05
2022-12-07T20:56:21.770Z,2.93
2022-12-07T20:59:05.090Z,2.82
2022-12-07T21:01:46.064Z,2.75
2022-12-07T21:04:27.782Z,2.74
2022-12-07T21:07:15.064Z,2.73
2022-12-07T21:09:58.348Z,2.71
2022-12-07T21:12:40.013Z,2.70
2022-12-07T21:15:21.786Z,2.65
2022-12-07T21:18:07.441Z,2.59
2022-12-07T21:20:49.210Z,2.55
2022-12-07T21:23:30.611Z,2.52
2022-12-07T21:26:23.842Z,2.49
2022-12-07T21:29:05.910Z,2.50
2022-12-07T21:31:47.850Z,2.52
2022-12-07T21:34:29.742Z,2.51
2022-12-07T21:37:11.934Z,2.49
2022-12-07T21:39:53.140Z,2.49
2022-12-07T21:42:35.050Z,2.46
2022-12-07T21:45:19.154Z,2.44
2022-12-07T21:48:00.766Z,2.42
2022-12-07T21:50:41.949Z,2.44
2022-12-07T21:53:22.893Z,2.46
2022-12-07T21:56:03.901Z,2.48
2022-12-07T21:58:44.835Z,2.53
2022-12-07T22:01:40.011Z,2.59
2022-12-07T22:04:32.791Z,2.61
2022-12-07T22:07:16.741Z,2.68
2022-12-07T22:09:57.792Z,2.74
2022-12-07T22:12:38.919Z,2.82
2022-12-07T22:15:21.802Z,2.86
2022-12-07T22:18:09.762Z,2.88
2022-12-07T22:20:56.171Z,2.86
2022-12-07T22:23:46.777Z,2.81
2022-12-07T22:26:24.612Z,2.79
2022-12-07T22:29:13.768Z,2.76
2022-12-07T22:31:54.806Z,2.72
2022-12-07T22:34:35.894Z,2.65
2022-12-07T22:37:17.038Z,2.60
2022-12-07T22:39:58.013Z,2.56
2022-12-07T22:42:39.805Z,2.53
2022-12-07T22:45:21.985Z,2.52
2022-12-07T22:48:02.802Z,2.49
2022-12-07T22:50:43.910Z,2.42
2022-12-07T22:53:31.299Z,2.38
2022-12-07T22:56:13.989Z,2.35
2022-12-07T22:58:55.791Z,2.32
2022-12-07T23:01:37.210Z,2.34
2022-12-07T23:04:18.853Z,2.41
2022-12-07T23:06:59.932Z,2.47
2022-12-07T23:09:41.929Z,2.53
2022-12-07T23:13:08.777Z,2.59
2022-12-07T23:15:43.225Z,2.62
2022-12-07T23:18:30.744Z,2.61
2022-12-07T23:21:05.355Z,2.62
2022-12-07T23:23:53.756Z,2.65
2022-12-07T23:26:28.388Z,2.66
2022-12-07T23:29:18.026Z,2.67
2022-12-07T23:31:53.324Z,2.66
2022-12-07T23:34:41.835Z,2.68
2022-12-07T23:37:16.295Z,2.67
2022-12-07T23:40:03.834Z,2.67
2022-12-07T23:42:44.759Z,2.70
2022-12-07T23:45:32.847Z,2.75
2022-12-07T23:48:07.839Z,2.78
2022-12-07T23:50:55.754Z,2.79
2022-12-07T23:53:33.421Z,2.79
2022-12-07T23:56:25.742Z,2.76
2022-12-07T23:59:00.910Z,2.76
